Etusivu
METAR-TAF:

METAR-TAF

Lentoasemat :

Karlstad, Ruotsi

Leveyspiiri: 59-26-41N, Pituuspiiri: 013-20-15E, korkeus merenpinnasta: 107 m

Tämänhetkinen sää

Tämä raportti tehtiin 16 minuuttia sitten, kello 09.50 UTC
Tuuli 7 kn etelästä/lounaasta
Lämpötila 22°C
Kosteus 50%
Ilmanpaine 1019 hPa
Näkyvyys 10 km tai enemmän
ei pilviä alle 1500 m:ssä eikä cumulonimbus-pilviä

METAR: ESOK 270950Z 20007KT CAVOK 22/11 Q1019

Aika: 12:06 (10:06 UTC)

Sääennuste

Tämä raportti tehtiin 1 tunti ja 36 minuuttia sitten, kello 08.30 UTC
Ennuste voimassa 27. päivästä klo 09 UTC - 27. päivään klo 16 UTC
Tuuli 5 kn lännestä
Näkyvyys 10 km tai enemmän
ei pilviä alle 1500 m:ssä eikä cumulonimbus-pilviä

TAF: ESOK 270830Z 2709/2716 26005KT CAVOK

Säähavainnot ja -ennusteet yli 4000 lentoasemalta (METAR- ja TAF-raportit).

Käytössä olevat sääasemat on merkitty karttaan keltaisilla ja punaisilla pisteillä.

Aseta hiiri pisteen päälle nähdäksesi sääaseman nimen.

Klikkaa sitten nähdäksesi säähavainnot ja -ennusteet.

Kartan vaihtaminen: klikkaa mustalla rastilla varustettuja vihreitä pisteitä, niin voit zoomata sisään; viivalla varustettua vihreää pistettä, niin voit zoomata ulos tai vihreitä nuolia, niin pääset viereisille kartoille.


METAR-TAF: